sensor_id;sensor_type;location;lat;lon;timestamp;pressure;altitude;pressure_sealevel;temperature;humidity
20424;BME280;10371;49.042;8.002;2023-01-29T00:00:07;101159.41;;;-0.11;85.91
20424;BME280;10371;49.042;8.002;2023-01-29T00:01:09;101156.84;;;-0.11;86.23
20424;BME280;10371;49.042;8.002;2023-01-29T00:02:10;101156.91;;;-0.13;86.19
20424;BME280;10371;49.042;8.002;2023-01-29T00:03:10;101153.50;;;-0.15;86.12
20424;BME280;10371;49.042;8.002;2023-01-29T00:04:10;101156.06;;;-0.15;86.04
20424;BME280;10371;49.042;8.002;2023-01-29T00:05:11;101143.31;;;-0.18;86.08
20424;BME280;10371;49.042;8.002;2023-01-29T00:06:11;101145.06;;;-0.20;86.30
20424;BME280;10371;49.042;8.002;2023-01-29T00:07:12;101142.53;;;-0.23;86.13
20424;BME280;10371;49.042;8.002;2023-01-29T00:08:12;101148.53;;;-0.24;86.09
20424;BME280;10371;49.042;8.002;2023-01-29T00:09:13;101144.31;;;-0.28;85.81
20424;BME280;10371;49.042;8.002;2023-01-29T00:10:13;101150.31;;;-0.28;85.97
20424;BME280;10371;49.042;8.002;2023-01-29T00:11:14;101156.28;;;-0.29;86.34
20424;BME280;10371;49.042;8.002;2023-01-29T00:12:15;101147.75;;;-0.31;86.30
20424;BME280;10371;49.042;8.002;2023-01-29T00:13:15;101156.34;;;-0.33;86.50
20424;BME280;10371;49.042;8.002;2023-01-29T00:14:16;101164.88;;;-0.34;86.56
20424;BME280;10371;49.042;8.002;2023-01-29T00:15:16;101157.25;;;-0.36;87.52
20424;BME280;10371;49.042;8.002;2023-01-29T00:16:16;101153.81;;;-0.36;87.95
20424;BME280;10371;49.042;8.002;2023-01-29T00:17:17;101153.81;;;-0.36;87.50
20424;BME280;10371;49.042;8.002;2023-01-29T00:18:18;101152.13;;;-0.37;87.93
20424;BME280;10371;49.042;8.002;2023-01-29T00:19:18;101150.47;;;-0.40;87.86
20424;BME280;10371;49.042;8.002;2023-01-29T00:20:19;101144.50;;;-0.42;87.31
20424;BME280;10371;49.042;8.002;2023-01-29T00:21:20;101148.78;;;-0.42;87.41
20424;BME280;10371;49.042;8.002;2023-01-29T00:22:23;101145.44;;;-0.44;87.33
20424;BME280;10371;49.042;8.002;2023-01-29T00:23:23;101147.16;;;-0.47;87.46
20424;BME280;10371;49.042;8.002;2023-01-29T00:24:24;101148.03;;;-0.49;87.36
20424;BME280;10371;49.042;8.002;2023-01-29T00:25:24;101147.22;;;-0.51;87.42
20424;BME280;10371;49.042;8.002;2023-01-29T00:26:25;101154.91;;;-0.53;87.41
20424;BME280;10371;49.042;8.002;2023-01-29T00:27:26;101143.81;;;-0.53;87.35
20424;BME280;10371;49.042;8.002;2023-01-29T00:28:26;101141.28;;;-0.55;87.09
20424;BME280;10371;49.042;8.002;2023-01-29T00:29:26;101140.47;;;-0.57;86.62
20424;BME280;10371;49.042;8.002;2023-01-29T00:30:26;101136.22;;;-0.58;86.77
20424;BME280;10371;49.042;8.002;2023-01-29T00:31:27;101133.72;;;-0.61;86.92
20424;BME280;10371;49.042;8.002;2023-01-29T00:32:27;101126.09;;;-0.65;87.13
20424;BME280;10371;49.042;8.002;2023-01-29T00:33:28;101133.75;;;-0.67;87.41
20424;BME280;10371;49.042;8.002;2023-01-29T00:34:28;101139.75;;;-0.68;87.66
20424;BME280;10371;49.042;8.002;2023-01-29T00:35:29;101136.38;;;-0.69;87.91
20424;BME280;10371;49.042;8.002;2023-01-29T00:36:29;101138.94;;;-0.70;88.05
20424;BME280;10371;49.042;8.002;2023-01-29T00:37:30;101133.00;;;-0.72;87.84
20424;BME280;10371;49.042;8.002;2023-01-29T00:38:31;101136.41;;;-0.72;88.16
20424;BME280;10371;49.042;8.002;2023-01-29T00:39:32;101136.41;;;-0.72;87.78
20424;BME280;10371;49.042;8.002;2023-01-29T00:40:38;101130.47;;;-0.74;88.08
20424;BME280;10371;49.042;8.002;2023-01-29T00:41:57;101127.06;;;-0.76;87.42
20424;BME280;10371;49.042;8.002;2023-01-29T00:43:16;101123.66;;;-0.76;87.48
20424;BME280;10371;49.042;8.002;2023-01-29T00:44:35;101122.88;;;-0.81;87.44
20424;BME280;10371;49.042;8.002;2023-01-29T00:45:54;101126.25;;;-0.78;87.62
20424;BME280;10371;49.042;8.002;2023-01-29T00:46:54;101121.16;;;-0.79;87.80
20424;BME280;10371;49.042;8.002;2023-01-29T00:47:54;101130.50;;;-0.78;88.03
20424;BME280;10371;49.042;8.002;2023-01-29T00:48:54;101118.59;;;-0.79;87.66
20424;BME280;10371;49.042;8.002;2023-01-29T00:49:55;101119.44;;;-0.77;87.65
20424;BME280;10371;49.042;8.002;2023-01-29T00:50:56;101127.06;;;-0.76;87.64
20424;BME280;10371;49.042;8.002;2023-01-29T00:51:56;101133.84;;;-0.73;87.16
20424;BME280;10371;49.042;8.002;2023-01-29T00:53:16;101130.44;;;-0.72;87.24
20424;BME280;10371;49.042;8.002;2023-01-29T00:54:16;101123.59;;;-0.70;86.49
20424;BME280;10371;49.042;8.002;2023-01-29T00:55:16;101122.72;;;-0.69;86.19
20424;BME280;10371;49.042;8.002;2023-01-29T00:56:17;101131.22;;;-0.65;86.50
20424;BME280;10371;49.042;8.002;2023-01-29T00:57:17;101126.97;;;-0.68;86.48
20424;BME280;10371;49.042;8.002;2023-01-29T00:58:17;101128.66;;;-0.67;86.32
20424;BME280;10371;49.042;8.002;2023-01-29T00:59:21;101139.72;;;-0.63;86.22
20424;BME280;10371;49.042;8.002;2023-01-29T01:00:21;101141.38;;;-0.62;86.44
20424;BME280;10371;49.042;8.002;2023-01-29T01:01:24;101136.28;;;-0.61;86.48
20424;BME280;10371;49.042;8.002;2023-01-29T01:02:43;101137.13;;;-0.62;86.14
20424;BME280;10371;49.042;8.002;2023-01-29T01:04:01;101133.72;;;-0.61;86.22
20424;BME280;10371;49.042;8.002;2023-01-29T01:05:02;101143.91;;;-0.58;85.73
20424;BME280;10371;49.042;8.002;2023-01-29T01:06:06;101141.34;;;-0.58;85.87
20424;BME280;10371;49.042;8.002;2023-01-29T01:07:07;101137.06;;;-0.59;86.30
20424;BME280;10371;49.042;8.002;2023-01-29T01:08:08;101139.63;;;-0.57;86.25
20424;BME280;10371;49.042;8.002;2023-01-29T01:09:27;101136.22;;;-0.58;86.45
20424;BME280;10371;49.042;8.002;2023-01-29T01:10:46;101131.09;;;-0.58;86.25
20424;BME280;10371;49.042;8.002;2023-01-29T01:11:47;101128.56;;;-0.58;86.27
20424;BME280;10371;49.042;8.002;2023-01-29T01:12:49;101134.50;;;-0.57;86.63
20424;BME280;10371;49.042;8.002;2023-01-29T01:13:51;101135.38;;;-0.60;86.89
20424;BME280;10371;49.042;8.002;2023-01-29T01:14:51;101137.13;;;-0.62;86.77
20424;BME280;10371;49.042;8.002;2023-01-29T01:15:51;101138.81;;;-0.61;86.11
20424;BME280;10371;49.042;8.002;2023-01-29T01:16:51;101138.81;;;-0.61;85.92
20424;BME280;10371;49.042;8.002;2023-01-29T01:17:53;101137.13;;;-0.62;85.77
20424;BME280;10371;49.042;8.002;2023-01-29T01:18:54;101141.38;;;-0.61;85.68
20424;BME280;10371;49.042;8.002;2023-01-29T01:19:54;101142.22;;;-0.60;85.51
20424;BME280;10371;49.042;8.002;2023-01-29T01:20:57;101145.63;;;-0.61;85.79
20424;BME280;10371;49.042;8.002;2023-01-29T01:21:57;101151.63;;;-0.61;85.53
20424;BME280;10371;49.042;8.002;2023-01-29T01:22:58;101145.66;;;-0.63;86.12
20424;BME280;10371;49.042;8.002;2023-01-29T01:23:58;101146.50;;;-0.62;86.15
20424;BME280;10371;49.042;8.002;2023-01-29T01:24:58;101145.66;;;-0.64;86.27
20424;BME280;10371;49.042;8.002;2023-01-29T01:25:59;101142.31;;;-0.66;86.46
20424;BME280;10371;49.042;8.002;2023-01-29T01:26:59;101137.19;;;-0.68;86.35
20424;BME280;10371;49.042;8.002;2023-01-29T01:27:59;101148.28;;;-0.68;86.29
20424;BME280;10371;49.042;8.002;2023-01-29T01:29:00;101162.78;;;-0.68;86.49
20424;BME280;10371;49.042;8.002;2023-01-29T01:30:00;101164.44;;;-0.67;86.49
20424;BME280;10371;49.042;8.002;2023-01-29T01:31:07;101161.94;;;-0.69;86.41
20424;BME280;10371;49.042;8.002;2023-01-29T01:32:08;101164.50;;;-0.69;86.38
20424;BME280;10371;49.042;8.002;2023-01-29T01:33:08;101157.69;;;-0.71;86.47
20424;BME280;10371;49.042;8.002;2023-01-29T01:34:08;101161.19;;;-0.75;86.10
20424;BME280;10371;49.042;8.002;2023-01-29T01:35:09;101158.56;;;-0.72;86.53
20424;BME280;10371;49.042;8.002;2023-01-29T01:36:10;101153.47;;;-0.74;86.97
20424;BME280;10371;49.042;8.002;2023-01-29T01:37:11;101156.91;;;-0.75;86.94
20424;BME280;10371;49.042;8.002;2023-01-29T01:38:12;101156.06;;;-0.78;87.31
20424;BME280;10371;49.042;8.002;2023-01-29T01:39:12;101168.00;;;-0.79;87.75
20424;BME280;10371;49.042;8.002;2023-01-29T01:40:15;101167.16;;;-0.79;87.68
20424;BME280;10371;49.042;8.002;2023-01-29T01:41:18;101169.78;;;-0.82;87.92
20424;BME280;10371;49.042;8.002;2023-01-29T01:42:19;101165.53;;;-0.85;88.21
20424;BME280;10371;49.042;8.002;2023-01-29T01:43:19;101162.13;;;-0.85;87.93
20424;BME280;10371;49.042;8.002;2023-01-29T01:44:55;101162.97;;;-0.83;87.73
20424;BME280;10371;49.042;8.002;2023-01-29T01:45:55;101159.59;;;-0.85;87.79
20424;BME280;10371;49.042;8.002;2023-01-29T01:46:59;101158.72;;;-0.84;87.92
20424;BME280;10371;49.042;8.002;2023-01-29T01:48:05;101147.66;;;-0.86;87.73
20424;BME280;10371;49.042;8.002;2023-01-29T01:49:15;101160.44;;;-0.85;87.70
20424;BME280;10371;49.042;8.002;2023-01-29T01:50:23;101156.16;;;-0.84;88.08
20424;BME280;10371;49.042;8.002;2023-01-29T01:51:28;101153.63;;;-0.86;87.74
20424;BME280;10371;49.042;8.002;2023-01-29T01:52:30;101152.75;;;-0.83;87.86
20424;BME280;10371;49.042;8.002;2023-01-29T01:53:38;101155.31;;;-0.83;87.57
20424;BME280;10371;49.042;8.002;2023-01-29T01:54:40;101156.94;;;-0.79;87.38
20424;BME280;10371;49.042;8.002;2023-01-29T01:55:44;101156.09;;;-0.80;87.34
20424;BME280;10371;49.042;8.002;2023-01-29T01:56:51;101148.44;;;-0.80;87.41
20424;BME280;10371;49.042;8.002;2023-01-29T01:58:09;101150.13;;;-0.79;87.34
20424;BME280;10371;49.042;8.002;2023-01-29T01:59:13;101148.44;;;-0.80;87.26
20424;BME280;10371;49.042;8.002;2023-01-29T02:00:17;101139.06;;;-0.79;86.68
20424;BME280;10371;49.042;8.002;2023-01-29T02:01:21;101143.28;;;-0.78;86.87
20424;BME280;10371;49.042;8.002;2023-01-29T02:02:26;101129.69;;;-0.80;86.95
20424;BME280;10371;49.042;8.002;2023-01-29T02:03:49;101130.50;;;-0.78;86.91
20424;BME280;10371;49.042;8.002;2023-01-29T02:05:12;101134.81;;;-0.80;86.82
20424;BME280;10371;49.042;8.002;2023-01-29T02:06:32;101136.50;;;-0.78;87.15
20424;BME280;10371;49.042;8.002;2023-01-29T02:07:53;101143.31;;;-0.80;87.29
20424;BME280;10371;49.042;8.002;2023-01-29T02:09:20;101146.72;;;-0.78;86.90
20424;BME280;10371;49.042;8.002;2023-01-29T02:10:40;101146.72;;;-0.79;87.22
20424;BME280;10371;49.042;8.002;2023-01-29T02:11:40;101144.16;;;-0.81;87.64
20424;BME280;10371;49.042;8.002;2023-01-29T02:12:42;101145.88;;;-0.81;87.77
20424;BME280;10371;49.042;8.002;2023-01-29T02:13:43;101148.47;;;-0.83;87.75
20424;BME280;10371;49.042;8.002;2023-01-29T02:14:44;101150.13;;;-0.79;87.56
20424;BME280;10371;49.042;8.002;2023-01-29T02:15:45;101151.81;;;-0.78;87.12
20424;BME280;10371;49.042;8.002;2023-01-29T02:16:47;101156.91;;;-0.75;86.86
20424;BME280;10371;49.042;8.002;2023-01-29T02:17:48;101160.25;;;-0.73;86.80
20424;BME280;10371;49.042;8.002;2023-01-29T02:18:48;101148.34;;;-0.72;86.81
20424;BME280;10371;49.042;8.002;2023-01-29T02:20:18;101150.03;;;-0.71;86.46
20424;BME280;10371;49.042;8.002;2023-01-29T02:24:41;101149.97;;;-0.66;86.29
20424;BME280;10371;49.042;8.002;2023-01-29T02:27:14;101150.78;;;-0.63;85.88
20424;BME280;10371;49.042;8.002;2023-01-29T02:29:44;101150.78;;;-0.63;86.02
20424;BME280;10371;49.042;8.002;2023-01-29T02:31:00;101149.94;;;-0.63;85.87
20424;BME280;10371;49.042;8.002;2023-01-29T02:35:17;101137.16;;;-0.65;85.20
20424;BME280;10371;49.042;8.002;2023-01-29T02:39:36;101142.28;;;-0.65;84.46
20424;BME280;10371;49.042;8.002;2023-01-29T02:40:46;101140.63;;;-0.69;84.99
20424;BME280;10371;49.042;8.002;2023-01-29T02:43:05;101135.56;;;-0.72;85.62
20424;BME280;10371;49.042;8.002;2023-01-29T02:44:18;101129.66;;;-0.77;85.32
20424;BME280;10371;49.042;8.002;2023-01-29T02:45:30;101136.44;;;-0.75;85.55
20424;BME280;10371;49.042;8.002;2023-01-29T02:46:37;101139.84;;;-0.74;85.45
20424;BME280;10371;49.042;8.002;2023-01-29T02:47:49;101131.38;;;-0.78;85.97
20424;BME280;10371;49.042;8.002;2023-01-29T02:49:03;101122.03;;;-0.80;86.52
20424;BME280;10371;49.042;8.002;2023-01-29T02:50:14;101127.16;;;-0.80;86.88
20424;BME280;10371;49.042;8.002;2023-01-29T02:51:24;101128.88;;;-0.82;86.78
20424;BME280;10371;49.042;8.002;2023-01-29T02:52:34;101129.72;;;-0.82;86.97
20424;BME280;10371;49.042;8.002;2023-01-29T02:54:01;101126.31;;;-0.82;86.42
20424;BME280;10371;49.042;8.002;2023-01-29T02:55:11;101139.94;;;-0.80;85.75
20424;BME280;10371;49.042;8.002;2023-01-29T02:56:23;101131.38;;;-0.79;85.87
20424;BME280;10371;49.042;8.002;2023-01-29T02:57:29;101130.50;;;-0.78;85.54
20424;BME280;10371;49.042;8.002;2023-01-29T02:59:44;101125.38;;;-0.78;85.45
20424;BME280;10371;49.042;8.002;2023-01-29T03:00:47;101125.44;;;-0.80;85.59
20424;BME280;10371;49.042;8.002;2023-01-29T03:01:50;101133.06;;;-0.77;85.24
20424;BME280;10371;49.042;8.002;2023-01-29T03:02:58;101116.88;;;-0.77;85.46
20424;BME280;10371;49.042;8.002;2023-01-29T03:04:10;101119.47;;;-0.80;85.66
20424;BME280;10371;49.042;8.002;2023-01-29T03:05:16;101119.47;;;-0.82;85.62
20424;BME280;10371;49.042;8.002;2023-01-29T03:06:31;101122.91;;;-0.84;85.60
20424;BME280;10371;49.042;8.002;2023-01-29T03:07:37;101122.06;;;-0.85;85.91
20424;BME280;10371;49.042;8.002;2023-01-29T03:10:19;101128.09;;;-0.89;86.08
20424;BME280;10371;49.042;8.002;2023-01-29T03:11:21;101130.66;;;-0.91;86.55
20424;BME280;10371;49.042;8.002;2023-01-29T03:12:25;101123.03;;;-0.94;86.55
20424;BME280;10371;49.042;8.002;2023-01-29T03:13:37;101129.88;;;-0.94;86.79
20424;BME280;10371;49.042;8.002;2023-01-29T03:14:40;101127.31;;;-0.96;87.16
20424;BME280;10371;49.042;8.002;2023-01-29T03:16:06;101124.81;;;-0.99;87.07
20424;BME280;10371;49.042;8.002;2023-01-29T03:17:08;101125.69;;;-1.00;87.30
20424;BME280;10371;49.042;8.002;2023-01-29T03:18:16;101120.59;;;-1.03;87.65
20424;BME280;10371;49.042;8.002;2023-01-29T03:19:18;101127.44;;;-1.05;87.80
20424;BME280;10371;49.042;8.002;2023-01-29T03:20:22;101118.94;;;-1.07;88.53
20424;BME280;10371;49.042;8.002;2023-01-29T03:21:32;101116.41;;;-1.12;88.55
20424;BME280;10371;49.042;8.002;2023-01-29T03:22:56;101128.41;;;-1.14;88.50
20424;BME280;10371;49.042;8.002;2023-01-29T03:23:58;101127.56;;;-1.14;88.38
20424;BME280;10371;49.042;8.002;2023-01-29T03:25:19;101134.38;;;-1.16;88.80
20424;BME280;10371;49.042;8.002;2023-01-29T03:26:40;101131.78;;;-1.13;88.47
20424;BME280;10371;49.042;8.002;2023-01-29T03:28:03;101138.56;;;-1.12;88.70
20424;BME280;10371;49.042;8.002;2023-01-29T03:29:22;101125.84;;;-1.15;88.79
20424;BME280;10371;49.042;8.002;2023-01-29T03:30:45;101131.78;;;-1.15;88.49
20424;BME280;10371;49.042;8.002;2023-01-29T03:32:06;101124.16;;;-1.18;89.00
20424;BME280;10371;49.042;8.002;2023-01-29T03:33:08;101132.69;;;-1.19;89.02
20424;BME280;10371;49.042;8.002;2023-01-29T03:34:14;101126.75;;;-1.21;89.33
20424;BME280;10371;49.042;8.002;2023-01-29T03:35:21;101128.47;;;-1.23;89.48
20424;BME280;10371;49.042;8.002;2023-01-29T03:36:50;101122.56;;;-1.25;89.49
20424;BME280;10371;49.042;8.002;2023-01-29T03:37:54;101121.72;;;-1.25;89.87
20424;BME280;10371;49.042;8.002;2023-01-29T03:38:56;101126.00;;;-1.27;89.74
20424;BME280;10371;49.042;8.002;2023-01-29T03:39:56;101125.97;;;-1.26;89.82
20424;BME280;10371;49.042;8.002;2023-01-29T03:41:32;101124.28;;;-1.27;90.10
20424;BME280;10371;49.042;8.002;2023-01-29T03:42:44;101122.59;;;-1.29;89.95
20424;BME280;10371;49.042;8.002;2023-01-29T03:43:55;101128.59;;;-1.30;90.10
20424;BME280;10371;49.042;8.002;2023-01-29T03:45:15;101130.28;;;-1.31;89.99
20424;BME280;10371;49.042;8.002;2023-01-29T03:46:31;101127.78;;;-1.37;90.22
20424;BME280;10371;49.042;8.002;2023-01-29T03:47:55;101122.75;;;-1.42;90.22
20424;BME280;10371;49.042;8.002;2023-01-29T03:49:14;101124.53;;;-1.50;90.48
20424;BME280;10371;49.042;8.002;2023-01-29T03:53:16;101128.00;;;-1.62;90.97
20424;BME280;10371;49.042;8.002;2023-01-29T03:54:35;101129.78;;;-1.68;91.39
20424;BME280;10371;49.042;8.002;2023-01-29T03:58:40;101131.56;;;-1.76;91.95
20424;BME280;10371;49.042;8.002;2023-01-29T04:00:57;101132.44;;;-1.79;92.23
20424;BME280;10371;49.042;8.002;2023-01-29T04:02:02;101132.44;;;-1.79;92.19
20424;BME280;10371;49.042;8.002;2023-01-29T04:03:08;101128.19;;;-1.82;92.23
20424;BME280;10371;49.042;8.002;2023-01-29T04:04:21;101124.84;;;-1.87;92.62
20424;BME280;10371;49.042;8.002;2023-01-29T04:05:26;101129.94;;;-1.87;92.61
20424;BME280;10371;49.042;8.002;2023-01-29T04:06:31;101134.25;;;-1.89;93.05
20424;BME280;10371;49.042;8.002;2023-01-29T04:07:34;101133.41;;;-1.91;93.12
20424;BME280;10371;49.042;8.002;2023-01-29T04:08:47;101133.41;;;-1.91;93.15
20424;BME280;10371;49.042;8.002;2023-01-29T04:09:54;101142.75;;;-1.91;93.61
20424;BME280;10371;49.042;8.002;2023-01-29T04:10:58;101141.06;;;-1.89;93.23
20424;BME280;10371;49.042;8.002;2023-01-29T04:12:07;101140.22;;;-1.93;93.76
20424;BME280;10371;49.042;8.002;2023-01-29T04:13:10;101136.84;;;-1.95;94.16
20424;BME280;10371;49.042;8.002;2023-01-29T04:14:12;101138.53;;;-1.95;94.06
20424;BME280;10371;49.042;8.002;2023-01-29T04:15:15;101136.00;;;-1.97;94.45
20424;BME280;10371;49.042;8.002;2023-01-29T04:16:38;101137.69;;;-1.94;94.55
20424;BME280;10371;49.042;8.002;2023-01-29T04:17:42;101134.28;;;-1.96;94.54
20424;BME280;10371;49.042;8.002;2023-01-29T04:18:46;101141.94;;;-1.98;94.63
20424;BME280;10371;49.042;8.002;2023-01-29T04:19:47;101140.25;;;-1.99;94.73
20424;BME280;10371;49.042;8.002;2023-01-29T04:20:48;101145.38;;;-1.99;94.94
20424;BME280;10371;49.042;8.002;2023-01-29T04:21:49;101132.63;;;-2.00;95.34
20424;BME280;10371;49.042;8.002;2023-01-29T04:22:52;101141.97;;;-2.01;95.89
20424;BME280;10371;49.042;8.002;2023-01-29T04:23:52;101143.69;;;-2.00;95.97
20424;BME280;10371;49.042;8.002;2023-01-29T04:24:53;101140.25;;;-1.99;96.33
20424;BME280;10371;49.042;8.002;2023-01-29T04:26:20;101143.66;;;-1.98;97.24
20424;BME280;10371;49.042;8.002;2023-01-29T04:27:42;101143.66;;;-1.97;97.48
20424;BME280;10371;49.042;8.002;2023-01-29T04:29:04;101142.81;;;-1.97;97.97
20424;BME280;10371;49.042;8.002;2023-01-29T04:31:22;101138.56;;;-1.97;98.63
20424;BME280;10371;49.042;8.002;2023-01-29T04:34:15;101139.38;;;-1.93;98.47
20424;BME280;10371;49.042;8.002;2023-01-29T04:35:31;101141.94;;;-1.95;98.35
20424;BME280;10371;49.042;8.002;2023-01-29T04:36:54;101141.91;;;-1.92;98.00
20424;BME280;10371;49.042;8.002;2023-01-29T04:38:10;101142.72;;;-1.88;97.29
20424;BME280;10371;49.042;8.002;2023-01-29T04:39:27;101141.88;;;-1.89;97.15
20424;BME280;10371;49.042;8.002;2023-01-29T04:40:33;101139.31;;;-1.87;96.49
20424;BME280;10371;49.042;8.002;2023-01-29T04:41:52;101141.84;;;-1.87;96.06
20424;BME280;10371;49.042;8.002;2023-01-29T04:43:00;101136.75;;;-1.86;95.68
20424;BME280;10371;49.042;8.002;2023-01-29T04:45:35;101138.44;;;-1.85;95.27
20424;BME280;10371;49.042;8.002;2023-01-29T04:46:48;101135.06;;;-1.84;94.93
20424;BME280;10371;49.042;8.002;2023-01-29T04:48:16;101135.06;;;-1.84;94.78
20424;BME280;10371;49.042;8.002;2023-01-29T04:49:41;101133.34;;;-1.83;95.27
20424;BME280;10371;49.042;8.002;2023-01-29T04:50:53;101133.34;;;-1.85;95.17
20424;BME280;10371;49.042;8.002;2023-01-29T04:52:14;101130.78;;;-1.83;95.44
20424;BME280;10371;49.042;8.002;2023-01-29T04:53:44;101141.00;;;-1.83;96.04
20424;BME280;10371;49.042;8.002;2023-01-29T04:56:18;101137.59;;;-1.84;96.17
20424;BME280;10371;49.042;8.002;2023-01-29T04:58:39;101128.25;;;-1.88;96.91
20424;BME280;10371;49.042;8.002;2023-01-29T04:59:45;101140.13;;;-1.81;96.68
20424;BME280;10371;49.042;8.002;2023-01-29T05:00:49;101129.06;;;-1.81;96.77
20424;BME280;10371;49.042;8.002;2023-01-29T05:01:52;101141.81;;;-1.78;96.86
20424;BME280;10371;49.042;8.002;2023-01-29T05:02:53;101140.94;;;-1.77;96.43
20424;BME280;10371;49.042;8.002;2023-01-29T05:03:54;101146.00;;;-1.74;96.57
20424;BME280;10371;49.042;8.002;2023-01-29T05:04:56;101143.47;;;-1.72;96.81
20424;BME280;10371;49.042;8.002;2023-01-29T05:05:59;101140.88;;;-1.69;96.72
20424;BME280;10371;49.042;8.002;2023-01-29T05:07:03;101141.69;;;-1.67;96.09
20424;BME280;10371;49.042;8.002;2023-01-29T05:08:05;101130.63;;;-1.66;95.70
20424;BME280;10371;49.042;8.002;2023-01-29T05:09:06;101133.16;;;-1.65;95.55
20424;BME280;10371;49.042;8.002;2023-01-29T05:10:08;101129.75;;;-1.64;95.11
20424;BME280;10371;49.042;8.002;2023-01-29T05:11:09;101121.25;;;-1.66;95.19
20424;BME280;10371;49.042;8.002;2023-01-29T05:12:12;101118.72;;;-1.64;95.04
20424;BME280;10371;49.042;8.002;2023-01-29T05:13:13;101124.66;;;-1.64;94.70
20424;BME280;10371;49.042;8.002;2023-01-29T05:14:16;101116.97;;;-1.62;94.97
20424;BME280;10371;49.042;8.002;2023-01-29T05:15:23;101115.28;;;-1.65;94.28
20424;BME280;10371;49.042;8.002;2023-01-29T05:16:28;101099.13;;;-1.65;94.37
20424;BME280;10371;49.042;8.002;2023-01-29T05:17:41;101100.84;;;-1.64;94.00
20424;BME280;10371;49.042;8.002;2023-01-29T05:18:42;101094.88;;;-1.66;93.99
20424;BME280;10371;49.042;8.002;2023-01-29T05:19:43;101088.91;;;-1.65;93.52
20424;BME280;10371;49.042;8.002;2023-01-29T05:20:43;101086.38;;;-1.67;93.72
20424;BME280;10371;49.042;8.002;2023-01-29T05:21:46;101096.56;;;-1.65;93.58
20424;BME280;10371;49.042;8.002;2023-01-29T05:22:48;101100.84;;;-1.67;93.80
20424;BME280;10371;49.042;8.002;2023-01-29T05:24:15;101110.22;;;-1.66;93.21
20424;BME280;10371;49.042;8.002;2023-01-29T05:25:21;101120.38;;;-1.65;93.46
20424;BME280;10371;49.042;8.002;2023-01-29T05:26:22;101129.72;;;-1.62;93.71
20424;BME280;10371;49.042;8.002;2023-01-29T05:27:41;101130.53;;;-1.57;94.13
20424;BME280;10371;49.042;8.002;2023-01-29T05:28:59;101116.91;;;-1.54;94.13
20424;BME280;10371;49.042;8.002;2023-01-29T05:30:00;101110.91;;;-1.52;94.22
20424;BME280;10371;49.042;8.002;2023-01-29T05:31:00;101110.03;;;-1.51;94.13
20424;BME280;10371;49.042;8.002;2023-01-29T05:32:00;101108.38;;;-1.53;94.21
20424;BME280;10371;49.042;8.002;2023-01-29T05:33:02;101109.22;;;-1.53;94.26
20424;BME280;10371;49.042;8.002;2023-01-29T05:34:02;101103.25;;;-1.53;94.31
20424;BME280;10371;49.042;8.002;2023-01-29T05:35:03;101110.91;;;-1.53;94.48
20424;BME280;10371;49.042;8.002;2023-01-29T05:36:04;101118.56;;;-1.52;94.32
20424;BME280;10371;49.042;8.002;2023-01-29T05:37:04;101108.38;;;-1.50;94.45
20424;BME280;10371;49.042;8.002;2023-01-29T05:38:05;101113.44;;;-1.47;94.72
20424;BME280;10371;49.042;8.002;2023-01-29T05:39:05;101111.69;;;-1.45;94.52
20424;BME280;10371;49.042;8.002;2023-01-29T05:40:06;101113.41;;;-1.46;94.24
20424;BME280;10371;49.042;8.002;2023-01-29T05:41:07;101117.63;;;-1.43;94.48
20424;BME280;10371;49.042;8.002;2023-01-29T05:42:08;101109.13;;;-1.45;94.18
20424;BME280;10371;49.042;8.002;2023-01-29T05:43:17;101114.25;;;-1.45;94.32
20424;BME280;10371;49.042;8.002;2023-01-29T05:44:18;101115.94;;;-1.46;93.91
20424;BME280;10371;49.042;8.002;2023-01-29T05:45:19;101110.03;;;-1.49;93.65
20424;BME280;10371;49.042;8.002;2023-01-29T05:46:19;101121.94;;;-1.47;94.03
20424;BME280;10371;49.042;8.002;2023-01-29T05:47:20;101118.53;;;-1.49;93.79
20424;BME280;10371;49.042;8.002;2023-01-29T05:48:20;101127.88;;;-1.48;93.86
20424;BME280;10371;49.042;8.002;2023-01-29T05:49:21;101123.69;;;-1.52;93.63
20424;BME280;10371;49.042;8.002;2023-01-29T05:50:22;101129.63;;;-1.50;93.58
20424;BME280;10371;49.042;8.002;2023-01-29T05:51:22;101121.97;;;-1.50;93.60
20424;BME280;10371;49.042;8.002;2023-01-29T05:52:22;101130.50;;;-1.52;93.74
20424;BME280;10371;49.042;8.002;2023-01-29T05:53:23;101123.69;;;-1.53;93.46
20424;BME280;10371;49.042;8.002;2023-01-29T05:54:23;101129.66;;;-1.53;93.58
20424;BME280;10371;49.042;8.002;2023-01-29T05:55:23;101133.06;;;-1.54;93.18
20424;BME280;10371;49.042;8.002;2023-01-29T05:56:24;101133.09;;;-1.57;92.97
20424;BME280;10371;49.042;8.002;2023-01-29T05:57:24;101137.38;;;-1.61;93.27
20424;BME280;10371;49.042;8.002;2023-01-29T05:58:24;101130.59;;;-1.63;93.62
20424;BME280;10371;49.042;8.002;2023-01-29T05:59:25;101145.91;;;-1.63;94.09
20424;BME280;10371;49.042;8.002;2023-01-29T06:00:25;101145.91;;;-1.63;94.77
20424;BME280;10371;49.042;8.002;2023-01-29T06:01:25;101148.50;;;-1.68;94.95
20424;BME280;10371;49.042;8.002;2023-01-29T06:02:29;101147.66;;;-1.68;95.07
20424;BME280;10371;49.042;8.002;2023-01-29T06:03:30;101153.63;;;-1.69;95.58
20424;BME280;10371;49.042;8.002;2023-01-29T06:04:30;101156.16;;;-1.68;95.75
20424;BME280;10371;49.042;8.002;2023-01-29T06:05:30;101153.63;;;-1.69;95.88
20424;BME280;10371;49.042;8.002;2023-01-29T06:06:31;101154.47;;;-1.69;95.62
20424;BME280;10371;49.042;8.002;2023-01-29T06:07:31;101154.47;;;-1.69;95.70
20424;BME280;10371;49.042;8.002;2023-01-29T06:08:32;101148.53;;;-1.69;95.95
20424;BME280;10371;49.042;8.002;2023-01-29T06:09:32;101150.22;;;-1.68;95.89
20424;BME280;10371;49.042;8.002;2023-01-29T06:10:32;101149.34;;;-1.67;95.53
20424;BME280;10371;49.042;8.002;2023-01-29T06:11:32;101146.78;;;-1.67;95.95
20424;BME280;10371;49.042;8.002;2023-01-29T06:12:33;101146.78;;;-1.66;95.34
20424;BME280;10371;49.042;8.002;2023-01-29T06:13:33;101145.09;;;-1.65;95.23
20424;BME280;10371;49.042;8.002;2023-01-29T06:14:33;101154.41;;;-1.61;94.95
20424;BME280;10371;49.042;8.002;2023-01-29T06:15:34;101152.69;;;-1.59;94.38